createdAt,value
2023-03-12T00:05:52.459Z,0.00
2023-03-12T00:15:58.644Z,0.00
2023-03-12T00:26:04.998Z,0.00
2023-03-12T00:36:11.228Z,0.00
2023-03-12T00:46:19.015Z,0.00
2023-03-12T00:56:25.161Z,0.00
2023-03-12T01:06:30.885Z,0.00
2023-03-12T01:16:37.161Z,0.00
2023-03-12T01:26:43.037Z,0.00
2023-03-12T01:36:49.315Z,0.00
2023-03-12T01:46:55.508Z,0.00
2023-03-12T01:57:01.418Z,0.00
2023-03-12T02:07:07.951Z,0.00
2023-03-12T02:17:13.877Z,0.00
2023-03-12T02:27:19.984Z,0.00
2023-03-12T02:37:26.089Z,0.00
2023-03-12T02:47:33.030Z,0.00
2023-03-12T02:57:38.951Z,0.00
2023-03-12T03:07:45.173Z,0.00
2023-03-12T03:17:51.277Z,0.00
2023-03-12T03:27:57.225Z,0.00
2023-03-12T03:38:03.308Z,0.00
2023-03-12T03:48:09.012Z,0.00
2023-03-12T03:58:15.109Z,0.00
2023-03-12T04:08:21.262Z,0.00
2023-03-12T04:18:27.402Z,0.00
2023-03-12T04:28:33.738Z,0.00
2023-03-12T04:38:39.863Z,0.00
2023-03-12T04:48:46.563Z,0.00
2023-03-12T04:58:53.450Z,0.00
2023-03-12T05:09:00.082Z,0.00
2023-03-12T05:19:06.409Z,0.00
2023-03-12T05:29:13.052Z,0.00
2023-03-12T05:39:19.844Z,0.00
2023-03-12T05:49:26.185Z,0.00
2023-03-12T05:59:32.697Z,0.00
2023-03-12T06:09:39.319Z,0.00
2023-03-12T06:19:45.350Z,0.00
2023-03-12T06:29:51.803Z,0.00
2023-03-12T06:39:58.570Z,4.00
2023-03-12T06:50:04.955Z,0.00
2023-03-12T07:00:11.462Z,4.00
2023-03-12T07:10:18.037Z,0.00
2023-03-12T07:20:24.936Z,0.00
2023-03-12T07:30:31.761Z,0.00
2023-03-12T07:40:38.348Z,4.00
2023-03-12T07:50:41.807Z,40.00
2023-03-12T08:00:44.418Z,88.00
2023-03-12T08:10:52.334Z,36.00
2023-03-12T08:21:02.078Z,84.00
2023-03-12T08:31:09.678Z,92.00
2023-03-12T08:41:16.732Z,64.00
2023-03-12T08:51:23.871Z,80.00
2023-03-12T09:01:30.068Z,72.00
2023-03-12T09:11:37.052Z,36.00
2023-03-12T09:21:44.010Z,116.00
2023-03-12T09:31:50.688Z,60.00
2023-03-12T09:41:57.033Z,60.00
2023-03-12T09:52:03.908Z,24.00
2023-03-12T10:02:10.228Z,16.00
2023-03-12T10:12:16.240Z,12.00
2023-03-12T10:22:23.242Z,16.00
2023-03-12T10:32:29.768Z,24.00
2023-03-12T10:42:36.467Z,28.00
2023-03-12T10:52:42.532Z,20.00
2023-03-12T11:02:48.884Z,24.00
2023-03-12T11:12:57.080Z,20.00
2023-03-12T11:23:03.596Z,12.00
2023-03-12T11:33:13.171Z,20.00
2023-03-12T11:43:32.343Z,16.00
2023-03-12T11:53:30.691Z,8.00
2023-03-12T12:03:40.110Z,8.00
2023-03-12T12:13:46.517Z,12.00
2023-03-12T12:23:53.128Z,12.00
2023-03-12T12:33:59.394Z,8.00
2023-03-12T12:44:06.685Z,12.00
2023-03-12T12:54:13.476Z,12.00
2023-03-12T13:04:20.272Z,12.00
2023-03-12T13:14:26.358Z,20.00
2023-03-12T13:24:32.794Z,12.00
2023-03-12T13:34:39.333Z,12.00
2023-03-12T13:44:45.522Z,8.00
2023-03-12T13:54:52.362Z,8.00
2023-03-12T14:04:58.976Z,8.00
2023-03-12T14:15:04.936Z,12.00
2023-03-12T14:25:12.080Z,8.00
2023-03-12T14:35:18.566Z,12.00
2023-03-12T14:45:25.264Z,4.00
2023-03-12T14:55:32.420Z,4.00
2023-03-12T15:05:38.086Z,4.00
2023-03-12T15:15:44.537Z,4.00
2023-03-12T15:25:50.513Z,4.00
2023-03-12T15:35:57.281Z,0.00
2023-03-12T15:46:03.687Z,0.00
2023-03-12T15:56:10.146Z,4.00
2023-03-12T16:06:17.027Z,4.00
2023-03-12T16:16:23.456Z,0.00
2023-03-12T16:26:29.866Z,0.00
2023-03-12T16:36:37.046Z,0.00
2023-03-12T16:46:43.852Z,0.00
2023-03-12T16:56:50.230Z,0.00
2023-03-12T17:06:57.732Z,0.00
2023-03-12T17:17:04.438Z,0.00
2023-03-12T17:27:11.231Z,0.00
2023-03-12T17:37:17.679Z,0.00
2023-03-12T17:47:24.431Z,0.00
2023-03-12T17:57:30.913Z,0.00
2023-03-12T18:07:37.845Z,0.00
2023-03-12T18:17:44.806Z,0.00
2023-03-12T18:27:51.181Z,0.00
2023-03-12T18:37:57.775Z,0.00
2023-03-12T18:48:04.399Z,0.00
2023-03-12T18:58:10.699Z,0.00
2023-03-12T19:08:17.392Z,0.00
2023-03-12T19:18:24.181Z,0.00
2023-03-12T19:28:30.765Z,0.00
2023-03-12T19:38:37.139Z,0.00
2023-03-12T19:48:43.716Z,0.00
2023-03-12T19:58:50.121Z,0.00
2023-03-12T20:08:56.709Z,0.00
2023-03-12T20:19:03.279Z,0.00
2023-03-12T20:29:09.970Z,0.00
2023-03-12T20:39:16.498Z,0.00
2023-03-12T20:49:23.381Z,0.00
2023-03-12T20:59:29.941Z,0.00
2023-03-12T21:09:36.514Z,0.00
2023-03-12T21:19:42.740Z,0.00
2023-03-12T21:29:49.526Z,0.00
2023-03-12T21:39:55.630Z,0.00
2023-03-12T21:50:02.064Z,0.00
2023-03-12T22:00:08.393Z,0.00
2023-03-12T22:10:14.868Z,0.00
2023-03-12T22:20:21.050Z,0.00
2023-03-12T22:30:26.988Z,0.00
2023-03-12T22:40:32.819Z,0.00
2023-03-12T22:50:38.945Z,0.00
2023-03-12T23:00:44.885Z,0.00
2023-03-12T23:10:50.912Z,0.00
2023-03-12T23:20:57.093Z,0.00
2023-03-12T23:31:03.286Z,0.00
2023-03-12T23:41:09.334Z,0.00
2023-03-12T23:51:15.578Z,0.00
